createdAt,value
2019-03-06T00:01:54.670Z,14.55
2019-03-06T00:04:24.446Z,18.25
2019-03-06T00:06:54.022Z,15.32
2019-03-06T00:09:23.882Z,21.40
2019-03-06T00:11:53.555Z,18.10
2019-03-06T00:14:23.236Z,21.20
2019-03-06T00:16:53.060Z,22.35
2019-03-06T00:19:22.638Z,14.40
2019-03-06T00:21:52.245Z,13.00
2019-03-06T00:24:21.981Z,21.90
2019-03-06T00:26:51.795Z,15.83
2019-03-06T00:29:22.038Z,25.00
2019-03-06T00:31:51.785Z,20.80
2019-03-06T00:34:21.475Z,19.02
2019-03-06T00:36:51.110Z,19.87
2019-03-06T00:39:20.956Z,13.03
2019-03-06T00:41:50.538Z,17.90
2019-03-06T00:44:20.147Z,21.82
2019-03-06T00:46:50.055Z,23.62
2019-03-06T00:49:19.818Z,16.95
2019-03-06T00:51:49.483Z,16.30
2019-03-06T00:54:19.696Z,18.70
2019-03-06T00:56:49.445Z,28.38
2019-03-06T00:59:19.265Z,15.50
2019-03-06T01:01:49.155Z,24.25
2019-03-06T01:04:19.224Z,18.85
2019-03-06T01:06:48.999Z,19.12
2019-03-06T01:09:18.877Z,19.05
2019-03-06T01:11:48.662Z,15.35
2019-03-06T01:14:18.397Z,22.00
2019-03-06T01:16:48.529Z,26.15
2019-03-06T01:19:18.228Z,21.80
2019-03-06T01:21:47.790Z,21.80
2019-03-06T01:24:17.896Z,22.85
2019-03-06T01:26:47.511Z,21.90
2019-03-06T01:29:17.120Z,24.40
2019-03-06T01:31:46.888Z,23.30
2019-03-06T01:34:18.186Z,21.52
2019-03-06T01:36:56.903Z,21.10
2019-03-06T01:39:47.129Z,27.10
2019-03-06T01:42:36.648Z,30.12
2019-03-06T01:45:08.514Z,19.82
2019-03-06T01:47:39.839Z,18.57
2019-03-06T01:50:11.633Z,24.23
2019-03-06T01:52:41.367Z,21.15
2019-03-06T01:55:14.343Z,26.93
2019-03-06T01:57:44.059Z,20.88
2019-03-06T02:00:18.573Z,20.95
2019-03-06T02:02:48.687Z,21.15
2019-03-06T02:05:18.699Z,27.98
2019-03-06T02:07:48.588Z,24.18
2019-03-06T02:10:18.586Z,17.62
2019-03-06T02:12:49.353Z,22.95
2019-03-06T02:15:22.218Z,26.07
2019-03-06T02:17:51.901Z,20.35
2019-03-06T02:20:21.519Z,22.73
2019-03-06T02:22:51.483Z,25.50
2019-03-06T02:25:21.330Z,29.72
2019-03-06T02:27:51.527Z,25.92
2019-03-06T02:30:24.474Z,19.00
2019-03-06T02:32:54.205Z,30.17
2019-03-06T02:35:23.795Z,25.43
2019-03-06T02:37:53.883Z,26.80
2019-03-06T02:40:23.519Z,24.07
2019-03-06T02:42:53.652Z,21.23
2019-03-06T02:45:23.362Z,38.28
2019-03-06T02:47:52.943Z,24.40
2019-03-06T02:50:23.072Z,30.52
2019-03-06T02:52:52.859Z,26.65
2019-03-06T02:55:23.690Z,25.20
2019-03-06T02:57:55.385Z,24.20
2019-03-06T03:00:29.291Z,29.48
2019-03-06T03:03:00.543Z,34.05
2019-03-06T03:05:31.971Z,29.92
2019-03-06T03:08:01.743Z,26.52
2019-03-06T03:10:31.435Z,29.80
2019-03-06T03:13:02.080Z,24.32
2019-03-06T03:15:31.680Z,29.70
2019-03-06T03:18:01.436Z,26.17
2019-03-06T03:20:32.322Z,26.50
2019-03-06T03:23:02.076Z,31.40
2019-03-06T03:25:31.845Z,28.17
2019-03-06T03:28:01.684Z,27.73
2019-03-06T03:30:31.369Z,29.18
2019-03-06T03:33:01.074Z,33.67
2019-03-06T03:35:31.457Z,28.57
2019-03-06T03:38:01.228Z,33.90
2019-03-06T03:40:30.922Z,30.70
2019-03-06T03:43:00.561Z,36.38
2019-03-06T03:45:30.224Z,28.38
2019-03-06T03:47:59.950Z,37.48
2019-03-06T03:50:29.850Z,35.13
2019-03-06T03:52:59.992Z,33.63
2019-03-06T03:55:32.217Z,38.10
2019-03-06T03:58:01.946Z,34.05
2019-03-06T04:00:32.079Z,30.20
2019-03-06T04:03:01.779Z,29.63
2019-03-06T04:05:31.517Z,28.65
2019-03-06T04:08:01.232Z,28.83
2019-03-06T04:10:32.382Z,33.70
2019-03-06T04:13:02.030Z,28.10
2019-03-06T04:15:31.670Z,34.63
2019-03-06T04:18:01.372Z,31.40
2019-03-06T04:20:31.523Z,29.50
2019-03-06T04:23:01.280Z,31.55
2019-03-06T04:25:31.275Z,45.63
2019-03-06T04:28:00.859Z,29.92
2019-03-06T04:30:30.586Z,30.90
2019-03-06T04:33:00.228Z,31.52
2019-03-06T04:35:30.101Z,35.68
2019-03-06T04:38:00.192Z,31.42
2019-03-06T04:40:30.022Z,30.27
2019-03-06T04:43:00.549Z,27.75
2019-03-06T04:45:30.429Z,31.93
2019-03-06T04:48:00.146Z,32.78
2019-03-06T04:50:30.154Z,26.70
2019-03-06T04:52:59.881Z,38.00
2019-03-06T04:55:29.748Z,31.27
2019-03-06T04:58:01.421Z,30.62
2019-03-06T05:00:31.585Z,30.97
2019-03-06T05:03:01.589Z,29.95
2019-03-06T05:05:31.727Z,31.27
2019-03-06T05:08:01.466Z,29.55
2019-03-06T05:10:31.085Z,29.12
2019-03-06T05:13:00.784Z,27.98
2019-03-06T05:15:30.643Z,29.30
2019-03-06T05:18:09.606Z,29.50
2019-03-06T05:20:39.318Z,35.80
2019-03-06T05:23:09.056Z,31.27
2019-03-06T05:25:38.768Z,31.45
2019-03-06T05:28:08.423Z,24.55
2019-03-06T05:30:38.049Z,24.00
2019-03-06T05:33:12.611Z,27.20
2019-03-06T05:36:01.902Z,32.65
2019-03-06T05:38:44.949Z,33.35
2019-03-06T05:41:14.611Z,26.60
2019-03-06T05:43:44.262Z,24.77
2019-03-06T05:46:14.283Z,28.83
2019-03-06T05:48:44.227Z,26.23
2019-03-06T05:51:13.851Z,27.82
2019-03-06T05:53:43.994Z,34.78
2019-03-06T05:56:13.696Z,26.33
2019-03-06T05:58:43.480Z,22.70
2019-03-06T06:01:13.217Z,27.05
2019-03-06T06:03:42.797Z,25.88
2019-03-06T06:06:12.505Z,35.58
2019-03-06T06:08:42.269Z,24.63
2019-03-06T06:11:11.914Z,31.17
2019-03-06T06:13:41.740Z,22.07
2019-03-06T06:16:11.996Z,21.57
2019-03-06T06:18:41.904Z,24.05
2019-03-06T06:21:21.969Z,21.52
2019-03-06T06:23:59.243Z,24.60
2019-03-06T06:26:30.484Z,24.90
2019-03-06T06:29:00.313Z,28.27
2019-03-06T06:31:29.974Z,29.20
2019-03-06T06:34:02.485Z,28.38
2019-03-06T06:36:32.981Z,25.50
2019-03-06T06:39:02.570Z,34.00
2019-03-06T06:41:32.437Z,23.80
2019-03-06T06:44:02.169Z,18.25
2019-03-06T06:46:31.860Z,20.20
2019-03-06T06:49:03.547Z,23.60
2019-03-06T06:51:55.496Z,20.92
2019-03-06T06:54:53.845Z,17.60
2019-03-06T06:57:57.796Z,19.95
2019-03-06T07:01:15.707Z,23.27
2019-03-06T07:04:10.556Z,20.02
2019-03-06T07:06:41.877Z,19.65
2019-03-06T07:09:29.729Z,22.60
2019-03-06T07:12:04.885Z,21.10
2019-03-06T07:14:42.286Z,20.60
2019-03-06T07:17:13.932Z,22.32
2019-03-06T07:19:45.119Z,19.05
2019-03-06T07:22:19.380Z,14.55
2019-03-06T07:25:02.891Z,16.95
2019-03-06T07:27:34.648Z,20.60
2019-03-06T07:30:21.883Z,15.32
2019-03-06T07:33:02.146Z,17.57
2019-03-06T07:36:10.054Z,17.92
2019-03-06T07:38:40.180Z,20.68
2019-03-06T07:41:09.619Z,12.88
2019-03-06T07:43:45.238Z,20.15
2019-03-06T07:46:17.240Z,19.32
2019-03-06T07:48:51.140Z,12.75
2019-03-06T07:51:38.431Z,20.12
2019-03-06T07:54:29.263Z,27.87
2019-03-06T07:57:11.241Z,13.58
2019-03-06T07:59:42.324Z,20.40
2019-03-06T08:02:45.141Z,11.88
2019-03-06T08:05:15.285Z,15.50
2019-03-06T08:07:46.391Z,17.00
2019-03-06T08:10:19.252Z,12.70
2019-03-06T08:12:53.699Z,15.85
2019-03-06T08:15:25.237Z,19.48
2019-03-06T08:18:04.123Z,16.00
2019-03-06T08:20:41.570Z,16.00
2019-03-06T08:23:11.038Z,21.43
2019-03-06T08:25:42.213Z,23.38
2019-03-06T08:28:12.863Z,12.45
2019-03-06T08:30:57.128Z,15.97
2019-03-06T08:33:27.829Z,19.50
2019-03-06T08:35:57.633Z,15.03
2019-03-06T08:38:28.015Z,13.60
2019-03-06T08:41:04.306Z,13.17
2019-03-06T08:43:31.183Z,11.40
2019-03-06T08:46:00.912Z,13.80
2019-03-06T08:48:33.560Z,19.20
2019-03-06T08:51:06.236Z,18.80
2019-03-06T08:53:43.520Z,14.90
2019-03-06T08:56:17.158Z,13.60
2019-03-06T08:58:52.878Z,17.13
2019-03-06T09:01:42.991Z,13.40
2019-03-06T09:04:21.153Z,13.03
2019-03-06T09:07:08.182Z,15.10
2019-03-06T09:09:44.003Z,19.33
2019-03-06T09:12:32.647Z,14.37
2019-03-06T09:15:08.061Z,13.73
2019-03-06T09:17:55.510Z,14.60
2019-03-06T09:20:37.341Z,12.27
2019-03-06T09:23:26.444Z,11.47
2019-03-06T09:26:11.354Z,21.00
2019-03-06T09:29:01.338Z,11.20
2019-03-06T09:31:49.486Z,12.97
2019-03-06T09:34:23.822Z,12.07
2019-03-06T09:37:02.777Z,10.70
2019-03-06T09:39:38.638Z,18.33
2019-03-06T09:42:10.477Z,13.43
2019-03-06T09:44:50.819Z,12.93
2019-03-06T09:47:22.471Z,16.23
2019-03-06T09:49:58.293Z,15.90
2019-03-06T09:52:37.181Z,15.40
2019-03-06T09:55:21.658Z,10.40
2019-03-06T09:57:53.065Z,11.33
2019-03-06T10:00:24.625Z,10.83
2019-03-06T10:03:06.781Z,11.70
2019-03-06T10:05:41.347Z,17.80
2019-03-06T10:08:12.904Z,15.10
2019-03-06T10:10:47.740Z,11.93
2019-03-06T10:13:28.061Z,13.43
2019-03-06T10:16:03.551Z,13.00
2019-03-06T10:18:36.252Z,11.87
2019-03-06T10:21:06.834Z,10.20
2019-03-06T10:23:38.106Z,11.37
2019-03-06T10:26:08.130Z,15.90
2019-03-06T10:28:38.525Z,9.37
2019-03-06T10:31:09.504Z,11.73
2019-03-06T10:33:41.528Z,17.27
2019-03-06T10:36:12.227Z,13.00
2019-03-06T10:38:42.134Z,14.13
2019-03-06T10:41:13.494Z,12.50
2019-03-06T10:43:49.055Z,9.07
2019-03-06T10:46:15.585Z,13.13
2019-03-06T10:48:48.446Z,13.40
2019-03-06T10:51:19.304Z,9.80
2019-03-06T10:53:49.479Z,10.17
2019-03-06T10:56:19.973Z,8.87
2019-03-06T10:58:49.929Z,12.50
2019-03-06T11:01:21.450Z,10.70
2019-03-06T11:03:56.872Z,16.27
2019-03-06T11:06:26.704Z,10.07
2019-03-06T11:08:56.509Z,9.80
2019-03-06T11:11:26.720Z,15.87
2019-03-06T11:14:03.380Z,10.33
2019-03-06T11:16:29.604Z,9.70
2019-03-06T11:19:00.592Z,12.27
2019-03-06T11:21:30.517Z,13.13
2019-03-06T11:24:02.065Z,14.00
2019-03-06T11:26:33.875Z,8.20
2019-03-06T11:29:04.944Z,8.87
2019-03-06T11:31:35.341Z,9.40
2019-03-06T11:34:07.374Z,10.10
2019-03-06T11:36:37.810Z,8.73
2019-03-06T11:39:12.812Z,8.67
2019-03-06T11:41:43.778Z,9.53
2019-03-06T11:44:14.232Z,7.90
2019-03-06T11:46:44.927Z,8.90
2019-03-06T11:49:17.962Z,8.30
2019-03-06T11:51:47.853Z,8.50
2019-03-06T11:54:18.050Z,12.27
2019-03-06T11:56:47.921Z,9.13
2019-03-06T11:59:18.268Z,10.30
2019-03-06T12:01:51.875Z,8.23
2019-03-06T12:04:22.387Z,11.30
2019-03-06T12:06:52.340Z,7.03
2019-03-06T12:09:30.093Z,10.07
2019-03-06T12:12:00.104Z,9.50
2019-03-06T12:14:29.860Z,8.97
2019-03-06T12:16:59.479Z,9.40
2019-03-06T12:19:29.210Z,10.73
2019-03-06T12:21:59.686Z,9.00
2019-03-06T12:24:29.414Z,8.47
2019-03-06T12:26:59.274Z,8.33
2019-03-06T12:29:28.978Z,8.07
2019-03-06T12:32:00.747Z,7.63
2019-03-06T12:34:30.649Z,7.40
2019-03-06T12:37:00.903Z,10.90
2019-03-06T12:39:30.626Z,10.03
2019-03-06T12:42:00.282Z,8.27
2019-03-06T12:44:29.866Z,8.27
2019-03-06T12:46:59.805Z,10.63
2019-03-06T12:49:29.548Z,11.53
2019-03-06T12:51:59.247Z,8.20
2019-03-06T12:54:29.050Z,9.00
2019-03-06T12:56:59.065Z,9.60
2019-03-06T12:59:28.980Z,8.33
2019-03-06T13:02:00.202Z,10.83
2019-03-06T13:04:32.891Z,9.87
2019-03-06T13:07:02.421Z,9.57
2019-03-06T13:09:32.917Z,11.40
2019-03-06T13:12:02.652Z,11.50
2019-03-06T13:14:32.322Z,11.80
2019-03-06T13:17:02.056Z,15.60
2019-03-06T13:19:32.412Z,8.73
2019-03-06T13:22:10.925Z,8.63
2019-03-06T13:24:33.509Z,9.30
2019-03-06T13:27:03.581Z,7.03
2019-03-06T13:29:33.252Z,11.27
2019-03-06T13:32:11.398Z,7.70
2019-03-06T13:34:35.085Z,7.57
2019-03-06T13:37:05.439Z,9.83
2019-03-06T13:39:35.626Z,6.90
2019-03-06T13:42:05.333Z,8.80
2019-03-06T13:44:35.244Z,8.10
2019-03-06T13:47:06.181Z,7.87
2019-03-06T13:49:35.700Z,7.13
2019-03-06T13:52:05.418Z,10.27
2019-03-06T13:54:35.343Z,10.43
2019-03-06T13:57:05.158Z,6.70
2019-03-06T13:59:34.841Z,6.63
2019-03-06T14:02:04.888Z,7.33
2019-03-06T14:04:34.422Z,6.97
2019-03-06T14:07:04.379Z,6.03
2019-03-06T14:09:38.489Z,8.30
2019-03-06T14:12:08.402Z,7.70
2019-03-06T14:14:38.109Z,8.20
2019-03-06T14:17:08.619Z,5.83
2019-03-06T14:19:38.229Z,7.10
2019-03-06T14:22:08.360Z,6.53
2019-03-06T14:24:38.521Z,5.43
2019-03-06T14:27:09.157Z,16.43
2019-03-06T14:29:38.846Z,5.80
2019-03-06T14:32:14.657Z,13.23
2019-03-06T14:34:40.791Z,5.97
2019-03-06T14:37:10.709Z,5.43
2019-03-06T14:39:40.389Z,5.30
2019-03-06T14:42:10.071Z,5.73
2019-03-06T14:44:39.825Z,5.10
2019-03-06T14:47:10.080Z,11.80
2019-03-06T14:49:39.621Z,5.23
2019-03-06T14:52:09.193Z,5.63
2019-03-06T14:54:38.935Z,5.20
2019-03-06T14:57:08.913Z,5.10
2019-03-06T14:59:38.505Z,4.60
2019-03-06T15:02:08.453Z,5.47
2019-03-06T15:04:40.508Z,5.00
2019-03-06T15:07:10.100Z,6.10
2019-03-06T15:09:39.852Z,4.77
2019-03-06T15:12:09.361Z,5.63
2019-03-06T15:14:39.208Z,6.10
2019-03-06T15:17:10.780Z,5.43
2019-03-06T15:19:40.385Z,6.07
2019-03-06T15:22:10.147Z,9.17
2019-03-06T15:24:41.810Z,6.87
2019-03-06T15:27:12.122Z,7.37
2019-03-06T15:29:42.130Z,5.47
2019-03-06T15:32:13.813Z,6.67
2019-03-06T15:34:44.174Z,5.17
2019-03-06T15:37:14.172Z,5.30
2019-03-06T15:39:48.586Z,6.80
2019-03-06T15:42:15.814Z,5.50
2019-03-06T15:44:45.394Z,5.30
2019-03-06T15:47:16.243Z,5.47
2019-03-06T15:49:47.485Z,5.10
2019-03-06T15:52:17.796Z,5.37
2019-03-06T15:54:47.908Z,4.80
2019-03-06T15:57:18.083Z,6.77
2019-03-06T15:59:47.998Z,6.43
2019-03-06T16:02:18.490Z,5.60
2019-03-06T16:04:48.495Z,5.90
2019-03-06T16:07:18.987Z,6.00
2019-03-06T16:09:48.904Z,5.63
2019-03-06T16:12:18.808Z,6.30
2019-03-06T16:14:50.298Z,5.80
2019-03-06T16:17:22.031Z,6.63
2019-03-06T16:19:51.702Z,6.33
2019-03-06T16:22:21.301Z,5.57
2019-03-06T16:24:50.988Z,5.73
2019-03-06T16:27:20.596Z,8.37
2019-03-06T16:29:50.128Z,6.23
2019-03-06T16:32:20.187Z,7.33
2019-03-06T16:34:50.252Z,5.83
2019-03-06T16:37:19.979Z,7.93
2019-03-06T16:39:51.791Z,6.20
2019-03-06T16:42:21.507Z,9.03
2019-03-06T16:44:52.945Z,8.20
2019-03-06T16:47:24.102Z,6.93
2019-03-06T16:49:53.983Z,5.57
2019-03-06T16:52:23.895Z,5.50
2019-03-06T16:54:54.492Z,8.13
2019-03-06T16:57:24.560Z,6.37
2019-03-06T16:59:55.413Z,6.73
2019-03-06T17:02:25.438Z,6.37
2019-03-06T17:04:55.270Z,8.10
2019-03-06T17:07:26.472Z,5.00
2019-03-06T17:09:57.249Z,14.63
2019-03-06T17:12:30.677Z,6.23
2019-03-06T17:15:00.795Z,5.87
2019-03-06T17:17:30.463Z,6.10
2019-03-06T17:20:00.141Z,9.30
2019-03-06T17:22:30.491Z,6.00
2019-03-06T17:25:01.811Z,6.03
2019-03-06T17:27:32.491Z,6.00
2019-03-06T17:30:02.179Z,9.70
2019-03-06T17:32:34.028Z,6.40
2019-03-06T17:35:04.138Z,6.10
2019-03-06T17:37:36.548Z,6.20
2019-03-06T17:40:08.882Z,8.07
2019-03-06T17:42:38.738Z,9.30
2019-03-06T17:45:09.154Z,11.90
2019-03-06T17:47:39.519Z,8.00
2019-03-06T17:50:12.778Z,6.30
2019-03-06T17:52:42.469Z,10.00
2019-03-06T17:55:13.036Z,9.67
2019-03-06T17:57:43.256Z,6.27
2019-03-06T18:00:19.134Z,10.17
2019-03-06T18:02:49.149Z,12.67
2019-03-06T18:05:19.069Z,8.53
2019-03-06T18:07:50.088Z,7.80
2019-03-06T18:10:22.133Z,12.57
2019-03-06T18:12:53.533Z,6.73
2019-03-06T18:15:23.707Z,9.63
2019-03-06T18:17:53.754Z,16.60
2019-03-06T18:20:23.469Z,13.00
2019-03-06T18:22:55.124Z,6.87
2019-03-06T18:25:26.561Z,10.20
2019-03-06T18:27:57.722Z,9.77
2019-03-06T18:30:28.073Z,13.40
2019-03-06T18:32:57.758Z,8.77
2019-03-06T18:35:30.931Z,6.03
2019-03-06T18:38:00.616Z,13.73
2019-03-06T18:40:30.970Z,7.97
2019-03-06T18:43:00.996Z,9.37
2019-03-06T18:45:32.431Z,10.10
2019-03-06T18:48:02.097Z,10.30
2019-03-06T18:50:33.921Z,6.40
2019-03-06T18:53:03.820Z,6.23
2019-03-06T18:55:33.827Z,8.33
2019-03-06T18:58:05.628Z,7.20
2019-03-06T19:00:35.342Z,12.83
2019-03-06T19:03:05.746Z,7.73
2019-03-06T19:05:37.011Z,7.60
2019-03-06T19:08:06.997Z,8.33
2019-03-06T19:10:36.987Z,8.90
2019-03-06T19:13:06.807Z,11.00
2019-03-06T19:15:36.574Z,7.03
2019-03-06T19:18:06.315Z,9.60
2019-03-06T19:20:36.093Z,7.47
2019-03-06T19:23:05.987Z,7.57
2019-03-06T19:25:35.663Z,9.70
2019-03-06T19:28:07.496Z,7.43
2019-03-06T19:30:37.170Z,11.30
2019-03-06T19:33:07.015Z,8.47
2019-03-06T19:35:37.004Z,13.07
2019-03-06T19:38:07.132Z,7.47
2019-03-06T19:40:36.744Z,8.20
2019-03-06T19:43:06.512Z,14.73
2019-03-06T19:45:36.161Z,8.50
2019-03-06T19:48:06.177Z,8.87
2019-03-06T19:50:36.155Z,7.90
2019-03-06T19:53:06.114Z,7.43
2019-03-06T19:55:37.304Z,7.00
2019-03-06T19:58:14.121Z,7.67
2019-03-06T20:00:43.883Z,9.70
2019-03-06T20:03:13.492Z,14.53
2019-03-06T20:05:43.948Z,6.90
2019-03-06T20:08:16.389Z,15.40
2019-03-06T20:10:46.164Z,6.30
2019-03-06T20:13:16.042Z,18.43
2019-03-06T20:15:45.774Z,7.63
2019-03-06T20:18:15.418Z,9.23
2019-03-06T20:20:46.330Z,7.57
2019-03-06T20:23:16.069Z,10.93
2019-03-06T20:25:45.902Z,7.33
2019-03-06T20:28:15.593Z,9.10
2019-03-06T20:30:45.557Z,9.60
2019-03-06T20:33:16.795Z,9.20
2019-03-06T20:35:46.900Z,7.93
2019-03-06T20:38:16.715Z,8.10
2019-03-06T20:40:46.622Z,8.97
2019-03-06T20:43:16.382Z,9.83
2019-03-06T20:45:45.986Z,8.93
2019-03-06T20:48:15.741Z,8.43
2019-03-06T20:50:45.493Z,10.30
2019-03-06T20:53:15.104Z,10.03
2019-03-06T20:55:44.710Z,8.07
2019-03-06T20:58:14.600Z,7.63
2019-03-06T21:00:44.295Z,10.23
2019-03-06T21:03:18.655Z,9.10
2019-03-06T21:05:48.990Z,8.73
2019-03-06T21:08:19.336Z,7.63
2019-03-06T21:10:49.008Z,9.27
2019-03-06T21:13:18.665Z,8.67
2019-03-06T21:15:48.602Z,10.53
2019-03-06T21:18:18.281Z,9.10
2019-03-06T21:20:48.062Z,7.47
2019-03-06T21:23:18.347Z,8.57
2019-03-06T21:25:48.329Z,12.33
2019-03-06T21:28:18.412Z,8.40
2019-03-06T21:30:48.052Z,9.13
2019-03-06T21:33:18.135Z,8.63
2019-03-06T21:35:47.879Z,8.07
2019-03-06T21:38:17.613Z,8.40
2019-03-06T21:40:47.320Z,7.63
2019-03-06T21:43:17.095Z,7.07
2019-03-06T21:45:46.852Z,6.57
2019-03-06T21:48:16.755Z,7.03
2019-03-06T21:50:46.535Z,8.10
2019-03-06T21:53:16.358Z,7.37
2019-03-06T21:55:48.148Z,7.83
2019-03-06T21:58:36.853Z,11.50
2019-03-06T22:01:06.624Z,7.37
2019-03-06T22:03:37.562Z,7.57
2019-03-06T22:06:08.675Z,12.13
2019-03-06T22:08:38.656Z,5.77
2019-03-06T22:11:11.189Z,7.50
2019-03-06T22:13:41.017Z,6.27
2019-03-06T22:16:10.941Z,7.57
2019-03-06T22:18:40.651Z,6.77
2019-03-06T22:21:12.019Z,6.50
2019-03-06T22:23:41.812Z,6.00
2019-03-06T22:26:11.587Z,6.33
2019-03-06T22:28:41.322Z,6.27
2019-03-06T22:31:11.204Z,8.70
2019-03-06T22:33:41.002Z,5.57
2019-03-06T22:36:10.638Z,12.13
2019-03-06T22:38:40.486Z,6.50
2019-03-06T22:41:10.167Z,5.50
2019-03-06T22:43:40.391Z,4.67
2019-03-06T22:46:10.157Z,5.67
2019-03-06T22:48:39.922Z,5.23
2019-03-06T22:51:09.676Z,5.63
2019-03-06T22:53:39.377Z,4.93
2019-03-06T22:56:09.423Z,5.47
2019-03-06T22:58:39.171Z,5.73
2019-03-06T23:01:16.674Z,4.83
2019-03-06T23:03:47.745Z,6.70
2019-03-06T23:06:17.405Z,7.20
2019-03-06T23:08:47.092Z,4.70
2019-03-06T23:11:16.664Z,5.00
2019-03-06T23:13:46.783Z,13.13
2019-03-06T23:16:16.437Z,5.23
2019-03-06T23:18:46.133Z,5.53
2019-03-06T23:21:15.651Z,6.33
2019-03-06T23:23:45.294Z,5.17
2019-03-06T23:26:15.768Z,12.53
2019-03-06T23:28:45.745Z,6.03
2019-03-06T23:31:15.491Z,4.93
2019-03-06T23:33:45.048Z,6.13
2019-03-06T23:36:14.902Z,7.83
2019-03-06T23:38:44.499Z,4.93
2019-03-06T23:41:14.121Z,8.00
2019-03-06T23:43:43.763Z,4.10
2019-03-06T23:46:13.865Z,6.00
2019-03-06T23:48:43.916Z,4.13
2019-03-06T23:51:15.334Z,4.80
2019-03-06T23:53:49.611Z,5.23
2019-03-06T23:56:19.405Z,4.10
2019-03-06T23:58:48.999Z,4.70
